createdAt,value
2019-02-26T00:02:17.322Z,86.49
2019-02-26T00:04:49.132Z,87.02
2019-02-26T00:07:20.258Z,87.09
2019-02-26T00:09:51.229Z,88.34
2019-02-26T00:12:21.912Z,87.89
2019-02-26T00:14:50.169Z,87.61
2019-02-26T00:17:20.205Z,87.64
2019-02-26T00:19:49.978Z,87.44
2019-02-26T00:22:18.765Z,87.32
2019-02-26T00:24:47.544Z,87.45
2019-02-26T00:27:16.346Z,87.25
2019-02-26T00:29:46.460Z,87.41
2019-02-26T00:32:16.155Z,87.40
2019-02-26T00:34:46.144Z,87.56
2019-02-26T00:37:14.905Z,87.10
2019-02-26T00:39:45.350Z,86.86
2019-02-26T00:42:14.221Z,87.04
2019-02-26T00:44:43.021Z,86.68
2019-02-26T00:47:11.803Z,86.84
2019-02-26T00:49:44.162Z,87.56
2019-02-26T00:52:15.550Z,88.36
2019-02-26T00:54:44.000Z,88.55
2019-02-26T00:57:13.959Z,88.56
2019-02-26T00:59:44.076Z,88.45
2019-02-26T01:02:13.439Z,88.75
2019-02-26T01:04:44.700Z,88.71
2019-02-26T01:07:12.838Z,88.33
2019-02-26T01:09:41.607Z,88.49
2019-02-26T01:12:13.221Z,88.28
2019-02-26T01:14:41.939Z,88.08
2019-02-26T01:17:14.824Z,87.81
2019-02-26T01:19:44.543Z,88.00
2019-02-26T01:22:13.336Z,87.90
2019-02-26T01:24:42.175Z,88.08
2019-02-26T01:27:13.585Z,88.00
2019-02-26T01:29:44.527Z,88.09
2019-02-26T01:32:13.793Z,88.46
2019-02-26T01:34:44.991Z,88.49
2019-02-26T01:37:13.881Z,88.11
2019-02-26T01:39:44.694Z,87.90
2019-02-26T01:42:17.397Z,87.66
2019-02-26T01:44:44.631Z,88.82
2019-02-26T01:47:13.530Z,88.45
2019-02-26T01:49:44.072Z,88.65
2019-02-26T01:52:14.971Z,88.30
2019-02-26T01:54:43.411Z,88.36
2019-02-26T01:57:12.181Z,87.94
2019-02-26T01:59:40.950Z,87.71
2019-02-26T02:02:12.268Z,87.76
2019-02-26T02:04:41.195Z,87.52
2019-02-26T02:07:10.785Z,88.26
2019-02-26T02:09:39.584Z,88.57
2019-02-26T02:12:29.649Z,88.47
2019-02-26T02:14:58.252Z,88.60
2019-02-26T02:17:28.830Z,88.92
2019-02-26T02:19:57.624Z,88.78
2019-02-26T02:22:26.420Z,88.98
2019-02-26T02:24:55.670Z,88.90
2019-02-26T02:27:27.286Z,88.28
2019-02-26T02:29:57.655Z,87.70
2019-02-26T02:32:28.756Z,86.92
2019-02-26T02:35:00.517Z,87.19
2019-02-26T02:37:30.019Z,87.82
2019-02-26T02:39:58.489Z,88.08
2019-02-26T02:42:27.327Z,87.09
2019-02-26T02:44:56.147Z,87.68
2019-02-26T02:47:30.834Z,88.37
2019-02-26T02:49:58.692Z,88.61
2019-02-26T02:52:29.852Z,88.70
2019-02-26T02:54:58.551Z,88.84
2019-02-26T02:57:29.460Z,89.48
2019-02-26T02:59:59.682Z,89.07
2019-02-26T03:02:28.921Z,89.06
2019-02-26T03:04:57.707Z,89.17
2019-02-26T03:07:28.844Z,88.94
2019-02-26T03:09:58.017Z,88.60
2019-02-26T03:12:27.674Z,88.66
2019-02-26T03:14:58.891Z,88.79
2019-02-26T03:17:27.253Z,88.84
2019-02-26T03:19:58.705Z,89.19
2019-02-26T03:22:27.272Z,89.03
2019-02-26T03:24:57.597Z,89.07
2019-02-26T03:27:28.374Z,88.77
2019-02-26T03:30:01.933Z,88.54
2019-02-26T03:32:31.764Z,88.47
2019-02-26T03:35:04.369Z,89.04
2019-02-26T03:37:31.883Z,89.07
2019-02-26T03:40:03.690Z,88.77
2019-02-26T03:42:33.470Z,88.69
2019-02-26T03:45:03.870Z,88.28
2019-02-26T03:47:33.886Z,88.02
2019-02-26T03:50:02.738Z,88.41
2019-02-26T03:52:32.239Z,88.92
2019-02-26T03:55:03.498Z,88.92
2019-02-26T03:57:32.101Z,89.23
2019-02-26T04:00:05.658Z,89.33
2019-02-26T04:02:31.968Z,89.17
2019-02-26T04:05:02.989Z,89.36
2019-02-26T04:07:33.396Z,89.16
2019-02-26T04:10:02.175Z,88.97
2019-02-26T04:12:35.822Z,88.97
2019-02-26T04:15:02.673Z,89.34
2019-02-26T04:17:33.678Z,89.36
2019-02-26T04:20:05.361Z,89.38
2019-02-26T04:22:39.187Z,89.14
2019-02-26T04:25:31.413Z,89.25
2019-02-26T04:28:08.161Z,89.25
2019-02-26T04:31:18.001Z,89.37
2019-02-26T04:34:25.845Z,89.24
2019-02-26T04:37:07.286Z,89.05
2019-02-26T04:40:04.956Z,88.85
2019-02-26T04:43:12.977Z,89.45
2019-02-26T04:46:13.621Z,90.31
2019-02-26T04:48:42.903Z,90.02
2019-02-26T04:51:11.777Z,90.00
2019-02-26T04:53:40.676Z,90.04
2019-02-26T04:56:12.830Z,89.86
2019-02-26T04:58:42.566Z,89.65
2019-02-26T05:01:12.977Z,90.11
2019-02-26T05:03:42.591Z,90.10
2019-02-26T05:06:11.450Z,90.17
2019-02-26T05:08:43.170Z,89.92
2019-02-26T05:11:19.049Z,89.72
2019-02-26T05:13:44.333Z,89.94
2019-02-26T05:16:14.321Z,89.31
2019-02-26T05:18:45.893Z,89.94
2019-02-26T05:21:14.005Z,90.23
2019-02-26T05:23:42.862Z,89.64
2019-02-26T05:26:15.250Z,89.47
2019-02-26T05:28:44.217Z,89.74
2019-02-26T05:31:15.115Z,90.46
2019-02-26T05:33:46.343Z,90.97
2019-02-26T05:36:17.122Z,90.61
2019-02-26T05:38:46.257Z,91.01
2019-02-26T05:41:15.150Z,91.24
2019-02-26T05:43:49.331Z,91.23
2019-02-26T05:46:18.859Z,91.11
2019-02-26T05:48:48.464Z,90.83
2019-02-26T05:51:16.971Z,91.24
2019-02-26T05:53:56.459Z,91.33
2019-02-26T05:56:54.506Z,90.91
2019-02-26T05:59:38.756Z,90.29
2019-02-26T06:02:07.527Z,89.46
2019-02-26T06:04:38.393Z,89.78
2019-02-26T06:07:07.124Z,90.37
2019-02-26T06:09:35.911Z,90.50
2019-02-26T06:12:05.086Z,90.80
2019-02-26T06:14:36.129Z,90.41
2019-02-26T06:17:04.925Z,90.39
2019-02-26T06:19:44.962Z,91.10
2019-02-26T06:22:16.861Z,91.05
2019-02-26T06:24:45.234Z,91.06
2019-02-26T06:27:18.275Z,90.80
2019-02-26T06:29:45.756Z,90.61
2019-02-26T06:32:15.735Z,90.77
2019-02-26T06:34:45.003Z,90.51
2019-02-26T06:37:17.135Z,90.44
2019-02-26T06:39:50.583Z,90.56
2019-02-26T06:42:18.082Z,90.55
2019-02-26T06:44:49.451Z,90.67
2019-02-26T06:47:18.572Z,90.59
2019-02-26T06:49:50.224Z,90.59
2019-02-26T06:52:19.671Z,90.57
2019-02-26T06:54:54.800Z,90.60
2019-02-26T06:57:21.224Z,90.48
2019-02-26T06:59:53.651Z,90.62
2019-02-26T07:02:22.266Z,90.56
2019-02-26T07:04:51.379Z,90.61
2019-02-26T07:07:20.593Z,90.39
2019-02-26T07:09:50.523Z,90.50
2019-02-26T07:12:45.269Z,90.62
2019-02-26T07:15:31.578Z,90.46
2019-02-26T07:18:04.423Z,90.14
2019-02-26T07:20:34.119Z,89.77
2019-02-26T07:23:03.195Z,89.65
2019-02-26T07:25:34.534Z,89.60
2019-02-26T07:28:03.028Z,89.79
2019-02-26T07:30:34.706Z,89.68
2019-02-26T07:33:05.412Z,89.79
2019-02-26T07:35:37.363Z,89.46
2019-02-26T07:38:06.120Z,89.00
2019-02-26T07:40:37.780Z,89.28
2019-02-26T07:43:09.110Z,88.74
2019-02-26T07:45:36.519Z,88.51
2019-02-26T07:48:06.345Z,87.19
2019-02-26T07:50:38.273Z,86.52
2019-02-26T07:53:06.351Z,87.10
2019-02-26T07:55:37.677Z,86.50
2019-02-26T07:58:17.920Z,86.25
2019-02-26T08:00:49.720Z,85.85
2019-02-26T08:03:21.862Z,85.82
2019-02-26T08:05:54.163Z,85.44
2019-02-26T08:08:34.664Z,85.08
2019-02-26T08:11:04.823Z,84.45
2019-02-26T08:13:36.504Z,83.42
2019-02-26T08:16:05.805Z,82.92
2019-02-26T08:18:35.393Z,82.41
2019-02-26T08:21:05.250Z,80.22
2019-02-26T08:23:37.998Z,79.11
2019-02-26T08:26:08.594Z,79.91
2019-02-26T08:28:38.909Z,79.66
2019-02-26T08:31:13.369Z,79.24
2019-02-26T08:33:40.396Z,76.72
2019-02-26T08:36:09.181Z,76.55
2019-02-26T08:38:38.371Z,77.28
2019-02-26T08:41:07.977Z,76.85
2019-02-26T08:43:42.133Z,75.46
2019-02-26T08:46:11.665Z,74.58
2019-02-26T08:48:44.289Z,75.25
2019-02-26T08:51:15.787Z,74.89
2019-02-26T08:53:47.605Z,74.87
2019-02-26T08:56:23.620Z,72.35
2019-02-26T08:58:53.893Z,72.16
2019-02-26T09:01:24.425Z,73.83
2019-02-26T09:04:08.588Z,71.15
2019-02-26T09:06:37.683Z,69.45
2019-02-26T09:09:08.803Z,70.77
2019-02-26T09:11:38.872Z,70.03
2019-02-26T09:14:09.855Z,67.10
2019-02-26T09:16:39.917Z,66.60
2019-02-26T09:19:09.359Z,64.35
2019-02-26T09:21:39.492Z,63.25
2019-02-26T09:24:09.323Z,62.93
2019-02-26T09:26:39.344Z,62.81
2019-02-26T09:29:10.397Z,62.29
2019-02-26T09:31:57.039Z,61.13
2019-02-26T09:34:26.654Z,60.93
2019-02-26T09:36:58.101Z,61.04
2019-02-26T09:39:27.562Z,58.23
2019-02-26T09:41:59.397Z,60.83
2019-02-26T09:44:29.296Z,59.29
2019-02-26T09:47:00.572Z,57.57
2019-02-26T09:49:31.477Z,56.48
2019-02-26T09:52:01.550Z,57.31
2019-02-26T09:54:31.057Z,55.89
2019-02-26T09:57:00.641Z,52.89
2019-02-26T09:59:31.441Z,51.84
2019-02-26T10:02:10.805Z,50.08
2019-02-26T10:04:42.486Z,49.61
2019-02-26T10:07:13.794Z,47.80
2019-02-26T10:09:45.908Z,45.85
2019-02-26T10:12:15.648Z,43.18
2019-02-26T10:14:44.898Z,42.19
2019-02-26T10:17:16.447Z,40.55
2019-02-26T10:19:45.110Z,38.44
2019-02-26T10:22:13.924Z,37.34
2019-02-26T10:24:43.130Z,36.70
2019-02-26T10:27:20.448Z,34.38
2019-02-26T10:29:50.000Z,34.98
2019-02-26T10:32:19.915Z,31.76
2019-02-26T10:34:48.807Z,31.04
2019-02-26T10:37:17.945Z,28.95
2019-02-26T10:39:49.719Z,28.05
2019-02-26T10:42:18.514Z,27.59
2019-02-26T10:44:48.487Z,27.23
2019-02-26T10:47:19.973Z,27.06
2019-02-26T10:49:51.370Z,26.93
2019-02-26T10:52:21.627Z,28.32
2019-02-26T10:54:51.343Z,26.25
2019-02-26T10:57:21.072Z,25.80
2019-02-26T10:59:56.919Z,24.71
2019-02-26T11:02:25.676Z,26.27
2019-02-26T11:04:55.530Z,24.93
2019-02-26T11:07:26.469Z,23.86
2019-02-26T11:09:56.246Z,21.04
2019-02-26T11:12:28.551Z,20.03
2019-02-26T11:14:58.633Z,19.32
2019-02-26T11:17:28.987Z,18.20
2019-02-26T11:20:01.155Z,17.53
2019-02-26T11:22:31.184Z,16.38
2019-02-26T11:28:07.968Z,17.39
2019-02-26T11:30:37.788Z,17.21
2019-02-26T11:33:10.486Z,16.78
2019-02-26T11:35:39.698Z,17.18
2019-02-26T11:38:11.734Z,16.36
2019-02-26T11:40:40.613Z,17.23
2019-02-26T11:43:12.379Z,17.04
2019-02-26T11:45:41.964Z,15.26
2019-02-26T11:48:11.249Z,14.43
2019-02-26T11:50:44.195Z,13.69
2019-02-26T11:53:10.875Z,13.38
2019-02-26T11:55:39.683Z,14.61
2019-02-26T11:58:10.835Z,16.16
2019-02-26T12:00:57.028Z,15.23
2019-02-26T12:03:29.744Z,13.64
2019-02-26T12:05:58.471Z,13.06
2019-02-26T12:08:26.752Z,12.58
2019-02-26T12:11:01.063Z,14.30
2019-02-26T12:13:27.667Z,13.19
2019-02-26T12:15:56.672Z,12.74
2019-02-26T12:18:25.562Z,14.00
2019-02-26T12:20:54.533Z,14.47
2019-02-26T12:23:23.346Z,13.04
2019-02-26T12:25:53.640Z,13.88
2019-02-26T12:28:25.171Z,13.71
2019-02-26T12:30:53.621Z,14.61
2019-02-26T12:33:24.109Z,13.98
2019-02-26T12:35:56.310Z,12.59
2019-02-26T12:38:25.637Z,11.79
2019-02-26T12:40:54.436Z,11.90
2019-02-26T12:43:23.256Z,13.60
2019-02-26T12:45:55.255Z,13.98
2019-02-26T12:48:24.420Z,13.05
2019-02-26T12:50:55.651Z,12.74
2019-02-26T12:53:24.745Z,13.91
2019-02-26T12:55:54.689Z,13.77
2019-02-26T12:58:27.774Z,14.20
2019-02-26T13:00:56.844Z,14.44
2019-02-26T13:03:26.383Z,14.05
2019-02-26T13:05:56.303Z,14.98
2019-02-26T13:08:25.582Z,14.98
2019-02-26T13:10:56.116Z,14.03
2019-02-26T13:13:25.739Z,15.32
2019-02-26T13:15:54.548Z,16.15
2019-02-26T13:18:23.321Z,14.44
2019-02-26T13:20:57.189Z,16.11
2019-02-26T13:23:22.605Z,15.65
2019-02-26T13:25:51.742Z,14.55
2019-02-26T13:28:20.550Z,15.35
2019-02-26T13:30:49.346Z,14.08
2019-02-26T13:33:22.419Z,14.10
2019-02-26T13:35:52.407Z,12.54
2019-02-26T13:38:24.455Z,11.09
2019-02-26T13:40:50.133Z,11.25
2019-02-26T13:43:18.988Z,12.56
2019-02-26T13:45:47.871Z,12.97
2019-02-26T13:48:17.383Z,14.67
2019-02-26T13:50:46.175Z,14.80
2019-02-26T13:53:16.020Z,14.11
2019-02-26T13:55:45.278Z,13.04
2019-02-26T13:58:14.075Z,13.55
2019-02-26T14:00:43.386Z,12.63
2019-02-26T14:03:12.280Z,11.81
2019-02-26T14:05:42.696Z,11.95
2019-02-26T14:08:12.309Z,13.19
2019-02-26T14:10:41.472Z,12.11
2019-02-26T14:13:11.626Z,11.97
2019-02-26T14:15:41.394Z,13.31
2019-02-26T14:18:10.267Z,13.00
2019-02-26T14:20:39.792Z,13.30
2019-02-26T14:23:08.608Z,11.04
2019-02-26T14:25:37.645Z,10.70
2019-02-26T14:28:06.490Z,10.57
2019-02-26T14:30:35.272Z,10.21
2019-02-26T14:33:04.883Z,10.04
2019-02-26T14:35:34.741Z,9.60
2019-02-26T14:38:04.555Z,10.46
2019-02-26T14:40:34.483Z,11.28
2019-02-26T14:43:04.086Z,10.00
2019-02-26T14:45:36.870Z,9.91
2019-02-26T14:48:06.141Z,8.56
2019-02-26T14:50:35.396Z,8.41
2019-02-26T14:53:04.166Z,8.30
2019-02-26T14:55:33.533Z,8.13
2019-02-26T14:58:02.308Z,9.35
2019-02-26T15:00:31.452Z,9.73
2019-02-26T15:03:01.434Z,11.00
2019-02-26T15:05:32.327Z,11.06
2019-02-26T15:08:01.526Z,10.77
2019-02-26T15:10:30.620Z,11.53
2019-02-26T15:12:59.944Z,11.38
2019-02-26T15:15:28.820Z,11.93
2019-02-26T15:17:57.590Z,12.05
2019-02-26T15:20:26.411Z,13.12
2019-02-26T15:22:55.331Z,12.91
2019-02-26T15:25:24.275Z,13.06
2019-02-26T15:27:53.163Z,13.20
2019-02-26T15:30:22.022Z,13.47
2019-02-26T15:32:50.983Z,14.84
2019-02-26T15:35:19.863Z,14.70
2019-02-26T15:37:48.884Z,14.55
2019-02-26T15:40:17.812Z,15.23
2019-02-26T15:42:46.918Z,14.08
2019-02-26T15:45:18.082Z,14.29
2019-02-26T15:47:46.960Z,14.64
2019-02-26T15:50:16.029Z,14.88
2019-02-26T15:52:44.832Z,16.77
2019-02-26T15:55:15.846Z,17.55
2019-02-26T15:57:44.894Z,17.74
2019-02-26T16:00:17.685Z,18.93
2019-02-26T16:02:46.857Z,18.78
2019-02-26T16:05:15.849Z,19.63
2019-02-26T16:07:44.674Z,21.16
2019-02-26T16:10:13.704Z,22.25
2019-02-26T16:12:42.654Z,27.00
2019-02-26T16:15:12.258Z,30.17
2019-02-26T16:17:41.453Z,32.22
2019-02-26T16:20:12.860Z,32.95
2019-02-26T16:22:41.729Z,35.25
2019-02-26T16:25:10.679Z,36.90
2019-02-26T16:27:39.646Z,37.18
2019-02-26T16:30:14.786Z,38.41
2019-02-26T16:32:43.665Z,39.00
2019-02-26T16:35:12.703Z,38.16
2019-02-26T16:37:42.163Z,37.34
2019-02-26T16:40:11.115Z,40.83
2019-02-26T16:42:44.391Z,41.14
2019-02-26T16:45:13.760Z,42.00
2019-02-26T16:47:42.752Z,42.05
2019-02-26T16:50:13.585Z,43.76
2019-02-26T16:52:43.624Z,44.98
2019-02-26T16:55:14.108Z,43.85
2019-02-26T16:57:43.827Z,44.17
2019-02-26T17:00:15.673Z,46.09
2019-02-26T17:02:45.669Z,47.98
2019-02-26T17:05:15.200Z,46.40
2019-02-26T17:07:43.984Z,46.24
2019-02-26T17:10:14.981Z,47.52
2019-02-26T17:12:45.491Z,50.92
2019-02-26T17:15:24.015Z,52.49
2019-02-26T17:17:50.158Z,54.77
2019-02-26T17:20:19.579Z,54.70
2019-02-26T17:22:49.522Z,56.03
2019-02-26T17:25:18.286Z,57.30
2019-02-26T17:27:47.467Z,59.12
2019-02-26T17:30:16.820Z,56.40
2019-02-26T17:32:45.782Z,58.25
2019-02-26T17:35:15.251Z,58.01
2019-02-26T17:37:44.208Z,59.49
2019-02-26T17:40:13.856Z,61.05
2019-02-26T17:42:42.650Z,62.88
2019-02-26T17:45:13.677Z,61.19
2019-02-26T17:47:42.447Z,58.39
2019-02-26T17:50:14.210Z,59.24
2019-02-26T17:52:42.956Z,60.61
2019-02-26T17:55:11.869Z,59.19
2019-02-26T17:57:41.027Z,60.32
2019-02-26T18:00:12.016Z,60.41
2019-02-26T18:02:40.785Z,59.28
2019-02-26T18:05:10.752Z,63.04
2019-02-26T18:07:39.753Z,64.34
2019-02-26T18:10:12.909Z,62.05
2019-02-26T18:12:42.686Z,65.23
2019-02-26T18:15:16.556Z,65.00
2019-02-26T18:17:42.818Z,65.98
2019-02-26T18:20:14.054Z,65.65
2019-02-26T18:22:42.996Z,66.96
2019-02-26T18:25:12.640Z,68.86
2019-02-26T18:27:41.474Z,69.34
2019-02-26T18:30:16.026Z,70.45
2019-02-26T18:32:50.223Z,65.91
2019-02-26T18:35:15.384Z,65.77
2019-02-26T18:37:46.621Z,66.97
2019-02-26T18:40:15.516Z,68.05
2019-02-26T18:42:44.348Z,69.06
2019-02-26T18:45:16.027Z,67.88
2019-02-26T18:47:44.860Z,67.97
2019-02-26T18:50:13.775Z,68.71
2019-02-26T18:52:42.647Z,71.18
2019-02-26T18:55:13.564Z,72.60
2019-02-26T18:57:43.669Z,71.87
2019-02-26T19:00:15.856Z,73.48
2019-02-26T19:02:44.764Z,71.19
2019-02-26T19:05:13.758Z,70.26
2019-02-26T19:07:42.602Z,70.66
2019-02-26T19:10:17.766Z,71.61
2019-02-26T19:12:44.085Z,71.55
2019-02-26T19:15:15.401Z,71.27
2019-02-26T19:17:47.604Z,72.35
2019-02-26T19:20:18.547Z,74.90
2019-02-26T19:22:47.622Z,74.24
2019-02-26T19:25:16.901Z,74.69
2019-02-26T19:27:48.015Z,73.70
2019-02-26T19:30:18.102Z,72.32
2019-02-26T19:32:47.749Z,73.40
2019-02-26T19:35:17.344Z,73.01
2019-02-26T19:37:47.032Z,72.35
2019-02-26T19:40:17.996Z,73.84
2019-02-26T19:42:47.602Z,71.63
2019-02-26T19:45:17.657Z,72.29
2019-02-26T19:47:47.228Z,71.00
2019-02-26T19:50:16.798Z,71.26
2019-02-26T19:52:45.943Z,71.10
2019-02-26T19:55:18.311Z,71.94
2019-02-26T19:57:47.080Z,72.95
2019-02-26T20:00:19.674Z,73.35
2019-02-26T20:02:47.449Z,72.99
2019-02-26T20:05:16.640Z,72.99
2019-02-26T20:07:45.739Z,73.85
2019-02-26T20:10:15.779Z,73.02
2019-02-26T20:12:45.016Z,71.35
2019-02-26T20:15:13.925Z,71.48
2019-02-26T20:17:42.766Z,71.25
2019-02-26T20:20:13.050Z,73.93
2019-02-26T20:22:42.099Z,73.45
2019-02-26T20:25:14.134Z,72.86
2019-02-26T20:27:42.928Z,72.87
2019-02-26T20:30:14.477Z,71.54
2019-02-26T20:32:44.337Z,72.44
2019-02-26T20:35:15.955Z,74.28
2019-02-26T20:37:44.508Z,74.56
2019-02-26T20:40:16.387Z,75.29
2019-02-26T20:42:45.751Z,75.74
2019-02-26T20:45:18.055Z,74.31
2019-02-26T20:47:46.683Z,75.04
2019-02-26T20:50:19.990Z,76.35
2019-02-26T20:52:46.548Z,76.20
2019-02-26T20:55:19.185Z,75.49
2019-02-26T20:57:47.536Z,76.30
2019-02-26T21:00:17.536Z,77.51
2019-02-26T21:02:46.446Z,79.02
2019-02-26T21:05:15.650Z,79.69
2019-02-26T21:07:44.591Z,79.54
2019-02-26T21:10:15.419Z,79.72
2019-02-26T21:12:45.005Z,79.70
2019-02-26T21:15:15.636Z,79.69
2019-02-26T21:17:44.587Z,78.87
2019-02-26T21:20:13.565Z,77.98
2019-02-26T21:22:42.413Z,76.90
2019-02-26T21:25:11.489Z,75.93
2019-02-26T21:27:40.349Z,75.28
2019-02-26T21:30:12.079Z,76.38
2019-02-26T21:32:41.341Z,76.91
2019-02-26T21:35:10.283Z,75.66
2019-02-26T21:37:39.236Z,76.04
2019-02-26T21:40:09.403Z,77.38
2019-02-26T21:42:38.173Z,78.00
2019-02-26T21:45:08.369Z,78.69
2019-02-26T21:47:37.193Z,78.24
2019-02-26T21:50:06.773Z,78.23
2019-02-26T21:52:35.560Z,78.29
2019-02-26T21:55:04.630Z,78.82
2019-02-26T21:57:33.541Z,76.79
2019-02-26T22:00:05.107Z,75.27
2019-02-26T22:02:32.844Z,73.01
2019-02-26T22:05:04.977Z,72.33
2019-02-26T22:07:32.099Z,74.10
2019-02-26T22:10:00.898Z,75.74
2019-02-26T22:12:29.669Z,77.00
2019-02-26T22:14:58.431Z,77.65
2019-02-26T22:17:27.343Z,78.59
2019-02-26T22:19:56.104Z,78.79
2019-02-26T22:22:26.239Z,79.13
2019-02-26T22:24:55.713Z,78.54
2019-02-26T22:27:24.792Z,78.97
2019-02-26T22:29:53.543Z,79.83
2019-02-26T22:32:22.751Z,79.95
2019-02-26T22:34:53.560Z,79.51
2019-02-26T22:37:22.831Z,79.17
2019-02-26T22:39:53.598Z,79.06
2019-02-26T22:42:23.323Z,79.64
2019-02-26T22:44:54.631Z,80.01
2019-02-26T22:47:25.401Z,80.41
2019-02-26T22:49:55.322Z,79.35
2019-02-26T22:52:24.964Z,79.69
2019-02-26T22:54:54.901Z,79.99
2019-02-26T22:57:24.448Z,80.51
2019-02-26T23:00:00.454Z,80.61
2019-02-26T23:02:31.351Z,81.13
2019-02-26T23:05:00.251Z,81.81
2019-02-26T23:07:29.210Z,82.07
2019-02-26T23:09:58.842Z,82.42
2019-02-26T23:12:28.788Z,81.66
2019-02-26T23:15:00.290Z,80.33
2019-02-26T23:17:30.218Z,79.24
2019-02-26T23:20:00.384Z,77.83
2019-02-26T23:22:30.694Z,79.07
2019-02-26T23:25:00.999Z,80.49
2019-02-26T23:27:31.724Z,80.72
2019-02-26T23:30:01.758Z,80.75
2019-02-26T23:32:30.979Z,81.24
2019-02-26T23:35:04.909Z,82.35
2019-02-26T23:37:34.657Z,82.42
2019-02-26T23:40:04.922Z,82.87
2019-02-26T23:42:33.937Z,83.34
2019-02-26T23:45:02.886Z,82.69
2019-02-26T23:47:34.987Z,82.99
2019-02-26T23:50:02.609Z,83.49
2019-02-26T23:52:31.479Z,83.48
2019-02-26T23:55:00.289Z,83.88
2019-02-26T23:57:29.459Z,84.33
2019-02-26T23:59:58.701Z,84.07
